Time;durP1;ratioP1;P1;durP2;ratioP2;P2;SDS_P1;SDS_P2;PMS_P1;PMS_P2;Temp;Humidity;BMP_temperature;BMP_pressure;BME280_temperature;BME280_humidity;BME280_pressure;Samples;Min_cycle;Max_cycle;Signal;HPM_P1;HPM_P2
2022/10/29 00:00:44;;;;;;;89.67;51.55;;;;;;;5.07;88.29;95571.77;1709652;83;21454;-61
2022/10/29 00:03:11;;;;;;;79.53;44.80;;;;;;;5.07;88.34;95567.68;1710111;82;21013;-61
2022/10/29 00:05:37;;;;;;;90.50;45.83;;;;;;;5.06;88.13;95568.85;1720712;81;21022;-61
2022/10/29 00:08:04;;;;;;;82.47;44.80;;;;;;;5.08;88.11;95575.26;1701681;83;20974;-61
2022/10/29 00:10:31;;;;;;;94.10;52.83;;;;;;;5.07;88.04;95570.98;1703457;83;21253;-61
2022/10/29 00:13:02;;;;;;;79.72;47.45;;;;;;;5.02;87.74;95570.81;1680062;83;20990;-60
2022/10/29 00:15:29;;;;;;;86.67;48.25;;;;;;;4.89;87.47;95566.92;1702565;83;21076;-61
2022/10/29 00:17:57;;;;;;;76.47;44.65;;;;;;;4.75;87.57;95572.37;1705200;81;21009;-60
2022/10/29 00:20:24;;;;;;;62.98;36.68;;;;;;;4.67;87.99;95565.37;1697511;83;21030;-61
2022/10/29 00:22:54;;;;;;;93.30;50.38;;;;;;;4.63;88.19;95557.76;1675801;83;21255;-61
2022/10/29 00:25:21;;;;;;;79.58;42.50;;;;;;;4.62;88.47;95561.66;1707765;83;20990;-61
2022/10/29 00:27:50;;;;;;;67.92;40.17;;;;;;;4.59;88.67;95562.44;1710479;83;21177;-61
2022/10/29 00:30:17;;;;;;;61.48;36.80;;;;;;;4.56;88.79;95564.58;1711742;83;21490;-61
2022/10/29 00:32:44;;;;;;;55.25;31.90;;;;;;;4.52;89.00;95556.99;1720087;81;21025;-61
2022/10/29 00:35:10;;;;;;;58.00;32.23;;;;;;;4.49;89.25;95557.77;1712655;83;21320;-60
2022/10/29 00:37:39;;;;;;;49.38;30.12;;;;;;;4.51;89.46;95558.16;1708308;82;20974;-61
2022/10/29 00:40:08;;;;;;;61.10;35.98;;;;;;;4.57;89.68;95553.11;1698249;83;21072;-60
2022/10/29 00:42:35;;;;;;;76.22;44.67;;;;;;;4.62;89.72;95554.08;1718972;83;21135;-60
2022/10/29 00:45:03;;;;;;;118.93;63.87;;;;;;;4.63;89.89;95552.31;1706811;83;21045;-60
2022/10/29 00:47:35;;;;;;;125.42;64.97;;;;;;;4.62;89.53;95551.35;1688961;83;22159;-61
2022/10/29 00:50:07;;;;;;;118.77;60.43;;;;;;;4.57;89.66;95555.84;1702693;83;21097;-61
2022/10/29 00:52:34;;;;;;;110.72;56.55;;;;;;;4.53;89.33;95546.86;1698772;83;21545;-59
2022/10/29 00:55:03;;;;;;;93.37;47.70;;;;;;;4.47;89.34;95549.22;1690788;83;20994;-60
2022/10/29 00:57:38;;;;;;;85.45;44.75;;;;;;;4.45;89.27;95547.44;1718996;83;21470;-61
2022/10/29 01:00:07;;;;;;;73.75;41.95;;;;;;;4.48;89.92;95549.98;1702121;83;21447;-61
2022/10/29 01:02:34;;;;;;;74.25;43.73;;;;;;;4.52;89.99;95545.30;1683653;83;21152;-61
2022/10/29 01:05:02;;;;;;;104.12;48.98;;;;;;;4.56;90.24;95552.32;1701645;83;20978;-60
2022/10/29 01:07:29;;;;;;;68.87;40.78;;;;;;;4.60;89.89;95546.88;1710793;83;20963;-61
2022/10/29 01:09:56;;;;;;;73.52;42.20;;;;;;;4.61;89.70;95551.16;1712469;82;21033;-61
2022/10/29 01:12:34;;;;;;;59.85;35.95;;;;;;;4.65;89.57;95550.00;1706062;83;21269;-61
2022/10/29 01:15:25;;;;;;;52.35;34.85;;;;;;;4.70;89.85;95542.79;1699792;83;21108;-61
2022/10/29 01:18:37;;;;;;;61.77;34.13;;;;;;;4.78;89.64;95541.60;1714515;82;21065;-60
2022/10/29 01:21:41;;;;;;;71.47;37.83;;;;;;;4.80;89.58;95552.13;1712950;83;21549;-62
2022/10/29 01:24:42;;;;;;;58.85;32.95;;;;;;;4.80;89.36;95540.63;1685199;84;21009;-62
2022/10/29 01:27:20;;;;;;;62.70;32.85;;;;;;;4.81;89.06;95546.27;1644876;84;21255;-60
2022/10/29 01:30:16;;;;;;;67.32;36.65;;;;;;;4.78;88.85;95536.75;1682789;83;20964;-61
2022/10/29 01:33:17;;;;;;;159.52;74.97;;;;;;;4.79;88.99;95536.34;1709707;83;21024;-61
2022/10/29 01:36:24;;;;;;;138.68;67.62;;;;;;;4.71;88.52;95534.02;1718933;83;21105;-62
2022/10/29 01:39:05;;;;;;;142.82;68.57;;;;;;;4.53;88.09;95535.95;1644988;86;21145;-60
2022/10/29 01:41:51;;;;;;;135.48;64.20;;;;;;;4.45;88.57;95537.14;1657798;83;21380;-60
2022/10/29 01:44:50;;;;;;;127.20;59.83;;;;;;;4.41;88.37;95531.67;1663024;83;20954;-60
2022/10/29 01:47:20;;;;;;;119.10;60.60;;;;;;;4.43;88.45;95527.98;1696345;83;21062;-60
2022/10/29 01:49:53;;;;;;;120.15;58.48;;;;;;;4.47;88.98;95524.70;1700018;83;21104;-60
2022/10/29 01:52:21;;;;;;;127.47;60.90;;;;;;;4.48;88.55;95531.70;1644024;85;20985;-61
2022/10/29 01:54:48;;;;;;;116.42;58.28;;;;;;;4.41;88.49;95524.11;1682523;84;21936;-61
2022/10/29 01:57:32;;;;;;;97.35;49.80;;;;;;;4.40;88.88;95527.40;1684306;83;21121;-60
2022/10/29 02:00:08;;;;;;;95.28;48.10;;;;;;;4.43;88.84;95523.89;1697865;82;20965;-61
2022/10/29 02:02:58;;;;;;;99.05;49.35;;;;;;;4.49;88.82;95526.45;1697151;81;21446;-61
2022/10/29 02:05:55;;;;;;;106.85;51.33;;;;;;;4.47;88.38;95527.42;1717260;83;21513;-60
2022/10/29 02:08:36;;;;;;;100.85;53.75;;;;;;;4.40;88.41;95522.55;1712923;82;21350;-60
2022/10/29 02:11:28;;;;;;;131.80;60.17;;;;;;;4.33;88.54;95521.96;1703846;82;21045;-60
2022/10/29 02:14:09;;;;;;;116.37;56.77;;;;;;;4.29;88.53;95517.09;1696748;83;21072;-61
2022/10/29 02:16:36;;;;;;;109.07;54.70;;;;;;;4.21;88.49;95512.80;1694525;83;20990;-61
2022/10/29 02:19:04;;;;;;;87.97;49.77;;;;;;;4.16;88.59;95517.27;1696455;83;21699;-60
2022/10/29 02:21:32;;;;;;;96.12;49.20;;;;;;;4.12;88.71;95513.77;1714103;83;21487;-61
2022/10/29 02:23:59;;;;;;;101.45;52.33;;;;;;;4.09;88.96;95513.76;1683216;83;21497;-61
2022/10/29 02:26:26;;;;;;;101.60;52.13;;;;;;;4.08;89.13;95504.80;1703125;82;21013;-61
2022/10/29 02:28:54;;;;;;;85.60;45.90;;;;;;;4.12;89.37;95509.69;1700705;83;21070;-61
2022/10/29 02:31:20;;;;;;;95.38;47.10;;;;;;;4.14;89.28;95510.08;1713944;82;20962;-61
2022/10/29 02:33:49;;;;;;;93.35;46.60;;;;;;;4.11;88.96;95513.58;1688187;83;20970;-61
2022/10/29 02:36:15;;;;;;;98.27;48.20;;;;;;;4.10;89.01;95509.30;1717522;83;21025;-60
2022/10/29 02:38:42;;;;;;;94.07;46.55;;;;;;;4.12;89.29;95508.33;1718893;81;21073;-60
2022/10/29 02:41:09;;;;;;;87.57;43.42;;;;;;;4.17;89.35;95512.59;1715481;83;21017;-62
2022/10/29 02:43:35;;;;;;;70.03;38.02;;;;;;;4.13;89.04;95507.73;1698113;83;21015;-61
2022/10/29 02:46:21;;;;;;;74.10;41.70;;;;;;;4.10;88.96;95513.95;1717075;83;21253;-61
2022/10/29 02:48:47;;;;;;;94.95;48.10;;;;;;;4.10;89.04;95512.02;1689749;83;21029;-60
2022/10/29 02:51:15;;;;;;;100.97;50.60;;;;;;;4.05;88.90;95509.66;1672160;83;21502;-61
2022/10/29 02:53:42;;;;;;;97.05;49.05;;;;;;;3.97;88.85;95514.91;1696545;83;20967;-60
2022/10/29 02:56:09;;;;;;;108.32;53.10;;;;;;;3.94;89.22;95510.24;1702900;83;21426;-61
2022/10/29 02:58:35;;;;;;;85.57;46.05;;;;;;;3.96;89.44;95513.36;1717585;82;21258;-61
2022/10/29 03:01:03;;;;;;;92.25;44.80;;;;;;;4.01;89.79;95513.53;1703894;81;21072;-61
2022/10/29 03:03:30;;;;;;;90.22;40.30;;;;;;;4.05;89.73;95512.38;1717337;83;20974;-60
2022/10/29 03:05:56;;;;;;;75.42;38.42;;;;;;;4.04;89.53;95517.63;1701556;83;20993;-61
2022/10/29 03:08:23;;;;;;;63.08;37.03;;;;;;;4.06;89.65;95512.58;1718080;83;21500;-61
2022/10/29 03:10:50;;;;;;;64.82;36.13;;;;;;;4.12;89.92;95517.86;1718479;83;21151;-62
2022/10/29 03:13:17;;;;;;;70.78;39.30;;;;;;;4.19;90.06;95509.69;1718212;83;21552;-61
2022/10/29 03:15:45;;;;;;;121.02;50.45;;;;;;;4.25;90.47;95514.94;1718057;83;21111;-60
2022/10/29 03:18:13;;;;;;;106.80;51.28;;;;;;;4.28;89.97;95508.70;1690719;83;21517;-60
2022/10/29 03:20:42;;;;;;;103.75;49.10;;;;;;;4.28;89.79;95507.94;1714772;83;20958;-60
2022/10/29 03:23:08;;;;;;;209.50;59.48;;;;;;;4.23;89.28;95505.61;1706956;82;21109;-61
2022/10/29 03:25:35;;;;;;;132.82;49.23;;;;;;;4.17;89.26;95502.48;1695397;83;21013;-62
2022/10/29 03:28:04;;;;;;;97.27;41.30;;;;;;;4.17;89.48;95502.48;1697565;83;21109;-61
2022/10/29 03:30:32;;;;;;;85.97;41.83;;;;;;;4.18;89.57;95501.33;1692476;83;21149;-61
2022/10/29 03:32:59;;;;;;;79.22;33.55;;;;;;;4.19;89.67;95506.97;1633740;86;21153;-60
2022/10/29 03:35:27;;;;;;;65.85;31.77;;;;;;;4.25;89.87;95501.91;1704079;83;22114;-60
2022/10/29 03:37:55;;;;;;;104.15;49.30;;;;;;;4.30;89.97;95506.97;1686615;83;21148;-61
2022/10/29 03:40:21;;;;;;;104.15;51.25;;;;;;;4.30;89.56;95505.61;1685913;83;21608;-60
2022/10/29 03:42:50;;;;;;;115.17;53.38;;;;;;;4.18;89.13;95509.49;1692143;83;21075;-61
2022/10/29 03:45:16;;;;;;;109.42;51.80;;;;;;;4.08;89.42;95504.03;1645464;86;21580;-61
2022/10/29 03:47:43;;;;;;;99.70;47.45;;;;;;;4.08;90.17;95507.52;1678083;84;22301;-61
2022/10/29 03:50:09;;;;;;;78.25;39.33;;;;;;;4.14;90.13;95507.36;1691005;83;21065;-60
2022/10/29 03:52:38;;;;;;;88.30;39.63;;;;;;;4.19;90.19;95504.23;1673769;84;21075;-60
2022/10/29 03:55:06;;;;;;;75.67;37.10;;;;;;;4.29;90.19;95506.77;1715469;83;20982;-61
2022/10/29 03:57:34;;;;;;;69.30;36.25;;;;;;;4.29;89.64;95506.77;1719085;81;21037;-62
2022/10/29 04:00:03;;;;;;;66.37;34.65;;;;;;;4.20;89.46;95503.08;1710437;83;21257;-61
2022/10/29 04:02:31;;;;;;;48.70;27.87;;;;;;;4.22;90.03;95499.38;1709581;83;21423;-61
2022/10/29 04:04:58;;;;;;;39.73;23.67;;;;;;;4.30;90.40;95509.69;1717164;83;21549;-60
2022/10/29 04:07:24;;;;;;;47.20;25.12;;;;;;;4.42;90.37;95512.05;1696169;82;21545;-61
2022/10/29 04:09:51;;;;;;;69.95;34.20;;;;;;;4.45;90.16;95507.94;1713048;83;20959;-61
2022/10/29 04:12:18;;;;;;;51.68;28.57;;;;;;;4.43;89.79;95503.47;1716879;83;21450;-60
2022/10/29 04:14:47;;;;;;;58.68;25.85;;;;;;;4.44;90.07;95498.81;1716979;83;21062;-63
2022/10/29 04:17:13;;;;;;;58.13;29.85;;;;;;;4.42;89.91;95499.78;1717247;83;21009;-61
2022/10/29 04:19:40;;;;;;;56.33;29.77;;;;;;;4.41;89.89;95496.27;1709797;83;20979;-62
2022/10/29 04:22:07;;;;;;;57.17;32.55;;;;;;;4.32;89.57;95494.53;1709254;83;21029;-61
2022/10/29 04:24:34;;;;;;;53.33;30.77;;;;;;;4.27;89.71;95496.25;1684055;83;21657;-62
2022/10/29 04:27:01;;;;;;;62.05;29.10;;;;;;;4.26;89.89;95498.79;1715546;83;20982;-59
2022/10/29 04:29:27;;;;;;;55.60;28.45;;;;;;;4.25;89.82;95496.47;1713046;83;21441;-59
2022/10/29 04:31:54;;;;;;;51.53;28.05;;;;;;;4.24;89.87;95499.00;1717411;83;21001;-59
2022/10/29 04:34:20;;;;;;;46.77;24.65;;;;;;;4.23;90.12;95491.40;1705398;83;20978;-59
2022/10/29 04:36:48;;;;;;;64.32;29.40;;;;;;;4.28;90.34;95500.53;1711740;81;21257;-59
2022/10/29 04:39:14;;;;;;;52.95;28.90;;;;;;;4.30;90.01;95502.88;1711537;83;21006;-60
2022/10/29 04:41:41;;;;;;;63.52;32.00;;;;;;;4.32;90.00;95505.99;1688281;83;21055;-59
2022/10/29 04:44:09;;;;;;;66.82;35.30;;;;;;;4.31;89.90;95502.51;1713950;81;20982;-60
2022/10/29 04:46:36;;;;;;;63.80;31.93;;;;;;;4.31;90.18;95495.70;1703063;83;21017;-60
2022/10/29 04:49:02;;;;;;;52.90;29.25;;;;;;;4.35;90.08;95499.77;1710269;83;21221;-60
2022/10/29 04:51:29;;;;;;;57.27;27.58;;;;;;;4.37;89.90;95495.49;1717373;83;20986;-59
2022/10/29 04:53:56;;;;;;;69.92;33.23;;;;;;;4.34;89.63;95493.55;1718038;83;21061;-59
2022/10/29 04:56:23;;;;;;;57.40;31.25;;;;;;;4.31;89.50;95487.53;1707173;81;21028;-58
2022/10/29 04:58:51;;;;;;;62.60;28.92;;;;;;;4.34;90.00;95490.83;1715225;83;20974;-59
2022/10/29 05:01:18;;;;;;;55.03;27.75;;;;;;;4.41;90.17;95481.28;1709977;82;21156;-59
2022/10/29 05:03:44;;;;;;;53.70;27.50;;;;;;;4.42;89.75;95486.16;1701534;82;21116;-59
2022/10/29 05:06:11;;;;;;;46.53;24.02;;;;;;;4.43;89.86;95479.55;1718600;83;20969;-59
2022/10/29 05:08:38;;;;;;;44.13;22.67;;;;;;;4.47;90.01;95482.47;1658413;83;21088;-60
2022/10/29 05:11:05;;;;;;;78.22;29.65;;;;;;;4.54;89.97;95474.85;1694011;83;21065;-58
2022/10/29 05:13:32;;;;;;;58.65;31.07;;;;;;;4.54;89.86;95475.64;1706799;83;21180;-60
2022/10/29 05:16:00;;;;;;;75.30;42.58;;;;;;;4.55;89.71;95469.59;1691204;83;21006;-58
2022/10/29 05:18:28;;;;;;;69.55;35.55;;;;;;;4.50;89.28;95468.06;1681683;83;21517;-61
2022/10/29 05:20:55;;;;;;;66.95;34.13;;;;;;;4.44;89.59;95473.69;1694218;83;21018;-60
2022/10/29 05:23:22;;;;;;;71.53;39.45;;;;;;;4.43;89.60;95473.50;1675718;83;20966;-59
2022/10/29 05:25:50;;;;;;;82.22;39.73;;;;;;;4.41;89.39;95479.92;1696503;83;21262;-60
2022/10/29 05:28:19;;;;;;;79.53;41.02;;;;;;;4.36;89.41;95479.53;1710028;83;20972;-59
2022/10/29 05:30:50;;;;;;;79.97;39.10;;;;;;;4.33;89.84;95481.11;1716317;81;21014;-59
2022/10/29 05:33:20;;;;;;;75.32;39.38;;;;;;;4.37;90.21;95474.27;1714242;83;21105;-60
2022/10/29 05:35:47;;;;;;;76.82;35.95;;;;;;;4.44;90.46;95471.56;1700296;83;20974;-59
2022/10/29 05:38:14;;;;;;;69.40;35.58;;;;;;;4.51;90.40;95477.00;1708311;82;21242;-59
2022/10/29 05:40:43;;;;;;;77.12;45.58;;;;;;;4.58;90.37;95472.33;1704012;83;20940;-60
2022/10/29 05:43:12;;;;;;;89.28;47.90;;;;;;;4.62;90.04;95471.73;1707674;81;21044;-59
2022/10/29 05:45:40;;;;;;;103.35;49.33;;;;;;;4.65;90.00;95480.52;1708709;81;21108;-59
2022/10/29 05:48:07;;;;;;;77.00;43.55;;;;;;;4.69;89.77;95472.31;1709577;83;20985;-59
2022/10/29 05:50:34;;;;;;;67.58;41.30;;;;;;;4.72;89.76;95475.61;1690072;82;21286;-63
2022/10/29 05:53:05;;;;;;;63.80;38.78;;;;;;;4.75;89.67;95478.34;1712061;83;21145;-60
2022/10/29 05:55:33;;;;;;;82.80;40.85;;;;;;;4.79;89.79;95480.47;1718824;83;20954;-61
2022/10/29 05:58:03;;;;;;;61.50;35.83;;;;;;;4.90;90.13;95479.88;1717228;83;21021;-59
2022/10/29 06:00:33;;;;;;;91.92;42.03;;;;;;;5.00;90.26;95473.60;1718692;82;20982;-60
2022/10/29 06:02:59;;;;;;;66.30;36.85;;;;;;;5.06;90.39;95473.41;1684118;83;21917;-59
2022/10/29 06:05:26;;;;;;;109.57;45.75;;;;;;;5.15;90.56;95473.76;1691289;83;21011;-59
2022/10/29 06:07:54;;;;;;;99.60;46.58;;;;;;;5.24;90.53;95466.71;1697245;83;21544;-60
2022/10/29 06:10:23;;;;;;;97.72;47.25;;;;;;;5.30;90.27;95468.45;1685121;83;21097;-59
2022/10/29 06:12:50;;;;;;;107.70;52.13;;;;;;;5.32;90.06;95470.20;1697028;82;21580;-60
2022/10/29 06:15:18;;;;;;;104.92;52.67;;;;;;;5.39;90.14;95471.55;1706797;83;20959;-60
2022/10/29 06:17:46;;;;;;;110.45;55.17;;;;;;;5.44;90.14;95460.22;1699397;83;21029;-59
2022/10/29 06:20:17;;;;;;;125.30;59.85;;;;;;;5.51;90.39;95462.90;1704451;82;21596;-62
2022/10/29 06:22:45;;;;;;;122.55;60.17;;;;;;;5.62;90.54;95462.27;1702885;83;21079;-61
2022/10/29 06:25:11;;;;;;;122.60;62.27;;;;;;;5.75;90.45;95464.75;1623655;85;21562;-62
2022/10/29 06:27:38;;;;;;;112.68;61.90;;;;;;;5.89;90.61;95461.94;1711653;81;22169;-61
2022/10/29 06:30:07;;;;;;;132.07;61.40;;;;;;;6.06;90.85;95463.78;1701696;83;21081;-60
2022/10/29 06:32:35;;;;;;;111.40;56.95;;;;;;;6.21;90.84;95459.20;1711054;82;21036;-60
2022/10/29 06:35:02;;;;;;;105.95;54.08;;;;;;;6.39;91.14;95457.69;1717309;82;21056;-60
2022/10/29 06:37:32;;;;;;;79.67;44.80;;;;;;;6.58;91.09;95463.39;1715684;83;21545;-61
2022/10/29 06:39:58;;;;;;;77.60;40.95;;;;;;;6.73;90.79;95462.67;1693722;83;21121;-60
2022/10/29 06:42:25;;;;;;;73.33;39.25;;;;;;;6.92;90.84;95460.72;1699938;83;20993;-61
2022/10/29 06:44:51;;;;;;;70.65;40.98;;;;;;;7.10;90.74;95461.50;1701014;83;21029;-61
2022/10/29 06:47:19;;;;;;;60.08;38.25;;;;;;;7.30;90.67;95458.34;1688301;83;21033;-61
2022/10/29 06:49:46;;;;;;;75.83;39.53;;;;;;;7.46;90.19;95461.28;1702065;83;20957;-61
2022/10/29 06:52:13;;;;;;;64.12;40.45;;;;;;;7.63;90.06;95456.18;1694809;82;21225;-59
2022/10/29 06:54:40;;;;;;;70.85;40.73;;;;;;;7.77;89.18;95458.74;1711666;83;21053;-60
2022/10/29 06:57:07;;;;;;;67.05;38.45;;;;;;;7.87;89.02;95460.55;1687915;84;21007;-60
2022/10/29 06:59:34;;;;;;;52.83;33.60;;;;;;;8.04;89.05;95447.20;1678790;84;21071;-60
2022/10/29 07:02:01;;;;;;;58.02;33.90;;;;;;;8.21;88.78;95446.19;1658353;86;21154;-61
2022/10/29 07:04:28;;;;;;;47.65;31.40;;;;;;;8.33;88.71;95444.25;1666262;85;21240;-60
2022/10/29 07:06:55;;;;;;;77.80;44.13;;;;;;;8.50;89.08;95448.68;1677823;83;20984;-61
2022/10/29 07:09:21;;;;;;;80.57;42.35;;;;;;;8.72;88.76;95441.64;1664443;84;21043;-60
2022/10/29 07:11:48;;;;;;;65.40;35.10;;;;;;;8.94;88.36;95445.56;1681499;84;20984;-60
2022/10/29 07:14:16;;;;;;;39.38;27.10;;;;;;;9.17;88.27;95436.70;1681961;84;21523;-61
2022/10/29 07:16:42;;;;;;;34.20;23.47;;;;;;;9.38;87.92;95431.38;1677967;84;22279;-63
2022/10/29 07:19:10;;;;;;;31.33;19.10;;;;;;;9.57;87.68;95431.97;1661138;84;21101;-60
2022/10/29 07:21:39;;;;;;;29.15;17.45;;;;;;;9.74;87.33;95431.61;1684214;84;21007;-60
2022/10/29 07:24:07;;;;;;;28.57;15.28;;;;;;;9.94;87.09;95428.81;1663929;84;21078;-59
2022/10/29 07:26:37;;;;;;;18.65;13.15;;;;;;;10.20;86.67;95430.63;1654409;84;21526;-65
2022/10/29 07:29:04;;;;;;;29.92;18.57;;;;;;;10.42;85.81;95426.96;1668326;83;21284;-63
2022/10/29 07:31:31;;;;;;;17.37;8.95;;;;;;;10.67;85.05;95423.58;1675966;84;21448;-64
2022/10/29 07:33:58;;;;;;;31.97;10.98;;;;;;;10.88;83.47;95427.37;1657264;84;21065;-60
2022/10/29 07:36:25;;;;;;;17.73;8.08;;;;;;;11.00;81.96;95423.13;1671643;85;21541;-60
2022/10/29 07:38:52;;;;;;;10.58;8.23;;;;;;;11.09;81.06;95424.06;1683874;84;21187;-60
2022/10/29 07:41:19;;;;;;;17.40;10.10;;;;;;;11.16;80.02;95421.72;1661469;84;21164;-62
2022/10/29 07:43:46;;;;;;;25.08;10.05;;;;;;;11.24;79.67;95427.98;1672776;83;21109;-63
2022/10/29 07:46:13;;;;;;;14.80;10.85;;;;;;;11.32;79.26;95418.31;1672435;84;21158;-60
2022/10/29 07:48:40;;;;;;;13.25;8.53;;;;;;;11.40;78.60;95421.64;1656356;84;21031;-62
2022/10/29 07:51:07;;;;;;;20.72;10.18;;;;;;;11.44;78.15;95416.21;1673040;83;20953;-60
2022/10/29 07:53:34;;;;;;;13.70;8.80;;;;;;;11.49;78.02;95414.29;1652815;84;21163;-64
2022/10/29 07:56:01;;;;;;;16.25;10.58;;;;;;;11.55;77.94;95409.78;1687879;84;20988;-61
2022/10/29 07:58:30;;;;;;;15.50;9.55;;;;;;;11.64;77.72;95410.55;1688470;84;21047;-59
2022/10/29 08:00:59;;;;;;;25.80;10.65;;;;;;;11.73;77.30;95406.56;1674680;85;21401;-63
2022/10/29 08:03:26;;;;;;;17.50;10.28;;;;;;;11.83;77.16;95402.70;1676056;83;21231;-61
2022/10/29 08:05:57;;;;;;;23.87;9.50;;;;;;;11.98;76.61;95403.23;1666333;84;21332;-61
2022/10/29 08:08:25;;;;;;;15.13;9.13;;;;;;;12.14;76.46;95401.77;1651975;84;21149;-61
2022/10/29 08:10:51;;;;;;;14.68;8.40;;;;;;;12.34;75.93;95400.14;1677917;84;20991;-60
2022/10/29 08:13:18;;;;;;;13.20;8.45;;;;;;;12.48;74.96;95399.08;1683402;85;21003;-60
2022/10/29 08:15:45;;;;;;;11.78;8.35;;;;;;;12.56;74.49;95399.03;1678391;84;21148;-62
2022/10/29 08:18:15;;;;;;;22.75;10.13;;;;;;;12.62;74.15;95387.58;1686761;85;21411;-60
2022/10/29 08:20:41;;;;;;;13.62;9.63;;;;;;;12.71;73.75;95391.83;1684956;84;20956;-60
2022/10/29 08:23:10;;;;;;;11.83;8.85;;;;;;;12.78;73.34;95388.82;1675881;84;20945;-60
2022/10/29 08:25:40;;;;;;;11.22;7.65;;;;;;;12.93;73.48;95374.73;1670553;83;21491;-61
2022/10/29 08:28:08;;;;;;;17.67;7.22;;;;;;;13.18;73.11;95374.63;1676229;84;20991;-59
2022/10/29 08:30:36;;;;;;;14.90;7.25;;;;;;;13.38;72.07;95370.35;1685779;83;21880;-61
2022/10/29 08:33:04;;;;;;;10.15;7.65;;;;;;;13.51;71.26;95370.28;1676748;84;21112;-61
2022/10/29 08:35:32;;;;;;;43.00;9.18;;;;;;;13.59;70.74;95356.38;1687459;83;20999;-61
2022/10/29 08:37:59;;;;;;;33.35;9.50;;;;;;;13.73;70.86;95357.98;1686058;83;20959;-60
2022/10/29 08:41:09;;;;;;;9.08;6.75;;;;;;;13.96;70.58;95353.34;1641647;84;21074;-60
2022/10/29 08:44:02;;;;;;;20.45;7.17;;;;;;;14.17;69.03;95356.69;1641363;86;21388;-59
2022/10/29 08:46:49;;;;;;;14.20;7.27;;;;;;;14.47;68.75;95350.34;1687883;84;21472;-60
2022/10/29 08:49:27;;;;;;;12.65;6.62;;;;;;;14.76;67.50;95351.48;1660362;85;21037;-62
2022/10/29 08:51:59;;;;;;;13.48;7.17;;;;;;;15.03;66.80;95350.13;1675987;85;21101;-61
2022/10/29 08:54:28;;;;;;;12.15;6.45;;;;;;;15.36;66.17;95353.10;1672900;85;21440;-61
2022/10/29 08:57:01;;;;;;;12.30;5.97;;;;;;;15.77;65.28;95351.03;1668297;84;21842;-60
2022/10/29 08:59:30;;;;;;;23.65;7.08;;;;;;;16.15;64.14;95347.07;1680140;84;20959;-62
2022/10/29 09:01:57;;;;;;;27.85;8.73;;;;;;;16.45;63.01;95340.66;1652115;85;21012;-60
2022/10/29 09:04:36;;;;;;;13.70;7.55;;;;;;;16.67;62.53;95344.53;1684799;84;21035;-59
2022/10/29 09:07:24;;;;;;;15.90;6.87;;;;;;;16.80;63.16;95343.69;1688160;84;21055;-60
2022/10/29 09:10:30;;;;;;;15.20;6.72;;;;;;;16.88;62.38;95342.11;1629235;83;21415;-60
2022/10/29 09:13:22;;;;;;;26.85;6.85;;;;;;;17.01;61.18;95339.84;1686460;83;21007;-59
2022/10/29 09:15:54;;;;;;;39.10;8.33;;;;;;;17.13;60.64;95335.41;1672642;83;21611;-63
2022/10/29 09:18:39;;;;;;;15.48;6.97;;;;;;;17.27;60.15;95328.37;1677305;84;20987;-60
2022/10/29 09:21:24;;;;;;;8.58;6.05;;;;;;;17.47;59.63;95327.91;1672841;83;21006;-60
2022/10/29 09:24:16;;;;;;;11.50;6.03;;;;;;;17.79;59.04;95322.05;1685084;83;21446;-61
2022/10/29 09:27:00;;;;;;;15.78;5.58;;;;;;;18.08;58.58;95317.85;1670896;85;21101;-61
2022/10/29 09:30:06;;;;;;;6.37;3.92;;;;;;;18.41;56.81;95315.77;1643175;84;21148;-61
2022/10/29 09:32:43;;;;;;;11.93;3.52;;;;;;;18.63;55.24;95322.30;1678556;83;21047;-61
2022/10/29 09:35:16;;;;;;;7.62;3.62;;;;;;;18.86;54.97;95312.34;1685094;84;21102;-62
2022/10/29 09:37:57;;;;;;;9.38;4.25;;;;;;;19.14;53.99;95303.72;1665938;83;21138;-60
2022/10/29 09:40:38;;;;;;;7.78;3.95;;;;;;;19.31;53.23;95303.31;1657315;84;21146;-61
2022/10/29 09:43:39;;;;;;;12.68;4.60;;;;;;;19.47;52.72;95302.73;1664884;84;21117;-61
2022/10/29 09:46:22;;;;;;;14.78;4.97;;;;;;;19.59;52.13;95293.20;1670785;85;21184;-61
2022/10/29 09:49:06;;;;;;;8.80;4.20;;;;;;;19.74;52.04;95289.68;1680429;84;21094;-61
2022/10/29 09:51:44;;;;;;;41.30;5.22;;;;;;;19.97;51.59;95286.47;1687901;85;21243;-62
2022/10/29 09:54:11;;;;;;;11.10;4.00;;;;;;;20.24;51.20;95280.52;1671639;83;21140;-61
2022/10/29 09:56:42;;;;;;;10.65;3.98;;;;;;;20.59;51.11;95269.80;1687847;83;20996;-62
2022/10/29 09:59:17;;;;;;;9.65;4.22;;;;;;;21.02;50.94;95270.57;1636640;85;21506;-63
2022/10/29 10:01:46;;;;;;;9.03;4.00;;;;;;;21.39;50.60;95262.81;1633623;85;21046;-61
2022/10/29 10:04:36;;;;;;;14.98;4.75;;;;;;;21.75;49.93;95266.11;1644747;86;21278;-63
2022/10/29 10:07:09;;;;;;;9.48;4.45;;;;;;;22.02;49.86;95256.98;1665437;84;21615;-63
2022/10/29 10:10:00;;;;;;;6.67;4.50;;;;;;;22.25;48.28;95255.07;1684318;83;21004;-61
2022/10/29 10:12:39;;;;;;;8.95;5.03;;;;;;;22.30;48.29;95250.09;1677347;83;21094;-62
2022/10/29 10:15:21;;;;;;;9.28;4.90;;;;;;;22.31;48.07;95237.59;1663331;85;21090;-61
2022/10/29 10:18:04;;;;;;;8.90;4.65;;;;;;;22.48;48.02;95248.94;1652071;86;21247;-61
2022/10/29 10:20:39;;;;;;;12.18;5.15;;;;;;;22.71;47.18;95242.02;1663402;83;21439;-60
2022/10/29 10:23:24;;;;;;;9.85;5.12;;;;;;;23.03;47.11;95233.35;1681180;84;21055;-61
2022/10/29 10:25:57;;;;;;;12.45;4.97;;;;;;;23.32;45.61;95228.54;1686526;83;20968;-61
2022/10/29 10:28:28;;;;;;;5.87;4.07;;;;;;;23.40;44.68;95218.93;1677402;84;21255;-61
2022/10/29 10:31:15;;;;;;;6.00;3.80;;;;;;;23.34;45.63;95216.77;1647008;83;21450;-62
2022/10/29 10:33:53;;;;;;;17.02;4.35;;;;;;;23.25;45.58;95213.66;1680218;84;21108;-61
2022/10/29 10:36:25;;;;;;;15.98;5.42;;;;;;;23.26;45.24;95208.16;1654199;84;21522;-62
2022/10/29 10:38:54;;;;;;;21.05;4.33;;;;;;;23.64;44.40;95211.38;1672883;84;20972;-61
2022/10/29 10:41:29;;;;;;;42.45;7.12;;;;;;;24.26;42.58;95208.98;1653857;85;21035;-62
2022/10/29 10:44:01;;;;;;;12.60;5.00;;;;;;;24.92;41.07;95209.74;1663542;84;21476;-59
2022/10/29 10:46:33;;;;;;;10.63;4.65;;;;;;;25.39;39.57;95201.09;1670084;84;20932;-62
2022/10/29 10:49:08;;;;;;;16.30;5.08;;;;;;;25.64;39.14;95191.27;1679188;85;20968;-60
2022/10/29 10:51:37;;;;;;;19.77;6.03;;;;;;;26.14;38.99;95183.58;1645009;84;21215;-62
2022/10/29 10:54:36;;;;;;;13.48;4.65;;;;;;;26.85;37.81;95176.63;1622338;87;21026;-62
2022/10/29 10:57:20;;;;;;;13.80;4.87;;;;;;;27.26;36.37;95182.48;1659510;85;21631;-59
2022/10/29 11:00:19;;;;;;;9.28;4.58;;;;;;;26.83;36.82;95173.59;1650493;83;21094;-62
2022/10/29 11:03:06;;;;;;;9.38;4.12;;;;;;;26.18;37.49;95170.68;1662218;84;21050;-63
2022/10/29 11:05:39;;;;;;;12.43;4.42;;;;;;;25.46;38.51;95168.09;1666451;85;21078;-62
2022/10/29 11:08:20;;;;;;;16.35;4.33;;;;;;;24.93;39.43;95169.03;1678016;83;21011;-63
2022/10/29 11:10:52;;;;;;;12.05;3.37;;;;;;;24.54;40.07;95165.91;1683742;83;21177;-62
2022/10/29 11:13:27;;;;;;;13.87;5.27;;;;;;;24.37;40.26;95164.62;1682848;85;20988;-64
2022/10/29 11:16:01;;;;;;;13.45;4.97;;;;;;;24.73;40.13;95156.86;1663583;84;21074;-64
2022/10/29 11:19:06;;;;;;;28.25;5.62;;;;;;;25.46;38.49;95167.44;1663311;84;21596;-63
2022/10/29 11:21:59;;;;;;;11.95;4.12;;;;;;;25.93;38.46;95160.08;1674413;83;21428;-62
2022/10/29 11:24:58;;;;;;;9.73;5.92;;;;;;;26.17;37.67;95163.52;1684238;84;21176;-62
2022/10/29 11:27:46;;;;;;;14.40;4.65;;;;;;;26.45;37.08;95166.59;1674986;83;21114;-63
2022/10/29 11:30:17;;;;;;;19.37;4.95;;;;;;;26.68;36.46;95155.69;1672635;83;21102;-62
2022/10/29 11:33:04;;;;;;;19.43;6.87;;;;;;;26.71;36.63;95151.11;1649078;84;21038;-62
2022/10/29 11:35:52;;;;;;;35.68;11.33;;;;;;;26.92;36.10;95150.58;1681763;84;21023;-62
2022/10/29 11:38:24;;;;;;;17.23;6.65;;;;;;;27.30;35.26;95149.02;1685480;84;22471;-64
2022/10/29 11:41:22;;;;;;;13.70;5.53;;;;;;;27.25;34.71;95151.30;1656847;85;21462;-60
2022/10/29 11:43:49;;;;;;;11.50;6.20;;;;;;;26.99;35.07;95144.26;1686074;83;21043;-61
2022/10/29 11:46:59;;;;;;;13.43;4.17;;;;;;;26.68;35.63;95142.31;1658024;84;21026;-62
2022/10/29 11:49:56;;;;;;;18.10;7.97;;;;;;;26.33;36.18;95134.22;1673476;85;20944;-62